Terminal Aerodrome Forecast
Issued by NWS

Home | Current Version | Previous Version | Text Only | Print | Product List | Glossary On
Versions: 1 2 3 4 5 6 7 8 9 10 11 12 13 14 15 16 17
194
FTUS46 KPDT 061120
TAFRDM
TAF
KRDM 061120Z 0612/0712 VRB03KT P6SM -SHSN SCT020 BKN070
     FM062000 34006KT P6SM SCT035 BKN080
     FM070300 VRB03KT P6SM SCT050=

USA.gov is the U.S. government's official web portal to all federal, state and local government web resources and services.